createdAt,value
2019-04-28T00:00:49.099Z,1.70
2019-04-28T00:03:20.766Z,1.62
2019-04-28T00:05:51.422Z,1.93
2019-04-28T00:08:21.034Z,1.60
2019-04-28T00:10:53.106Z,2.00
2019-04-28T00:13:22.352Z,1.80
2019-04-28T00:15:53.873Z,2.08
2019-04-28T00:18:23.801Z,1.60
2019-04-28T00:21:03.388Z,1.40
2019-04-28T00:23:51.239Z,1.50
2019-04-28T00:26:32.352Z,1.50
2019-04-28T00:29:01.737Z,1.40
2019-04-28T00:31:31.343Z,1.55
2019-04-28T00:34:01.325Z,1.30
2019-04-28T00:36:31.347Z,1.40
2019-04-28T00:39:01.506Z,1.40
2019-04-28T00:41:32.688Z,1.40
2019-04-28T00:44:02.092Z,1.70
2019-04-28T00:46:36.146Z,1.30
2019-04-28T00:49:05.651Z,1.37
2019-04-28T00:51:35.098Z,1.60
2019-04-28T00:54:04.620Z,1.50
2019-04-28T00:56:33.989Z,1.60
2019-04-28T00:59:03.439Z,1.70
2019-04-28T01:01:37.541Z,1.55
2019-04-28T01:04:06.924Z,1.30
2019-04-28T01:06:36.373Z,1.80
2019-04-28T01:09:07.668Z,1.50
2019-04-28T01:11:38.928Z,1.60
2019-04-28T01:14:08.390Z,1.32
2019-04-28T01:16:57.264Z,1.47
2019-04-28T01:19:31.188Z,1.87
2019-04-28T01:22:13.052Z,1.20
2019-04-28T01:27:12.794Z,1.73
2019-04-28T01:29:42.160Z,1.30
2019-04-28T01:32:20.331Z,1.37
2019-04-28T01:34:49.925Z,1.55
2019-04-28T01:37:19.692Z,1.55
2019-04-28T01:39:49.599Z,1.60
2019-04-28T01:42:20.408Z,1.70
2019-04-28T01:44:49.842Z,1.45
2019-04-28T01:47:20.495Z,1.47
2019-04-28T01:49:50.167Z,1.47
2019-04-28T01:52:20.282Z,1.47
2019-04-28T01:54:50.288Z,1.60
2019-04-28T01:57:21.518Z,1.37
2019-04-28T01:59:51.794Z,1.27
2019-04-28T02:02:21.806Z,1.50
2019-04-28T02:04:51.842Z,1.30
2019-04-28T02:07:22.466Z,1.00
2019-04-28T02:09:51.858Z,1.32
2019-04-28T02:12:21.915Z,1.50
2019-04-28T02:14:52.153Z,1.40
2019-04-28T02:17:22.019Z,1.00
2019-04-28T02:19:51.983Z,1.22
2019-04-28T02:22:29.915Z,1.28
2019-04-28T02:25:00.786Z,1.25
2019-04-28T02:27:30.366Z,0.80
2019-04-28T02:30:00.307Z,1.12
2019-04-28T02:32:30.859Z,0.90
2019-04-28T02:35:01.528Z,1.03
2019-04-28T02:37:32.084Z,1.10
2019-04-28T02:40:03.522Z,1.30
2019-04-28T02:42:33.680Z,1.17
2019-04-28T02:45:04.809Z,1.10
2019-04-28T02:47:34.406Z,1.20
2019-04-28T02:50:11.175Z,1.10
2019-04-28T02:52:57.163Z,1.32
2019-04-28T02:55:26.619Z,1.00
2019-04-28T02:57:56.004Z,1.10
2019-04-28T03:00:25.381Z,1.30
2019-04-28T03:02:54.908Z,1.10
2019-04-28T03:05:24.356Z,1.00
2019-04-28T03:07:53.820Z,1.05
2019-04-28T03:10:23.253Z,1.10
2019-04-28T03:12:52.741Z,1.00
2019-04-28T03:15:22.672Z,0.80
2019-04-28T03:17:53.301Z,0.82
2019-04-28T03:20:22.808Z,1.10
2019-04-28T03:22:53.434Z,0.90
2019-04-28T03:25:40.760Z,0.80
2019-04-28T03:28:21.402Z,1.00
2019-04-28T03:30:53.777Z,0.82
2019-04-28T03:33:26.121Z,0.80
2019-04-28T03:35:56.022Z,1.10
2019-04-28T03:38:26.438Z,1.07
2019-04-28T03:40:55.847Z,1.00
2019-04-28T03:43:25.278Z,0.90
2019-04-28T03:46:02.700Z,0.90
2019-04-28T03:48:30.928Z,0.90
2019-04-28T03:51:01.115Z,0.60
2019-04-28T03:56:11.410Z,0.60
2019-04-28T03:58:40.955Z,0.42
2019-04-28T04:01:11.066Z,0.60
2019-04-28T04:03:41.726Z,0.50
2019-04-28T04:06:12.404Z,0.70
2019-04-28T04:08:41.865Z,0.50
2019-04-28T04:11:25.256Z,0.40
2019-04-28T04:14:11.510Z,0.45
2019-04-28T04:16:51.547Z,0.60
2019-04-28T04:19:20.928Z,0.55
2019-04-28T04:21:52.660Z,0.60
2019-04-28T04:24:21.396Z,0.50
2019-04-28T04:26:50.784Z,0.50
2019-04-28T04:29:21.663Z,0.80
2019-04-28T04:31:52.207Z,0.70
2019-04-28T04:34:21.613Z,0.60
2019-04-28T04:36:51.049Z,0.47
2019-04-28T04:39:20.789Z,0.50
2019-04-28T04:41:50.464Z,0.50
2019-04-28T04:44:21.061Z,0.60
2019-04-28T04:46:50.990Z,0.60
2019-04-28T04:49:21.484Z,0.50
2019-04-28T04:51:51.209Z,0.53
2019-04-28T04:54:20.642Z,0.50
2019-04-28T04:56:50.225Z,0.42
2019-04-28T04:59:20.269Z,0.60
2019-04-28T05:01:51.348Z,0.60
2019-04-28T05:04:22.369Z,0.60
2019-04-28T05:06:51.759Z,0.60
2019-04-28T05:09:21.136Z,0.35
2019-04-28T05:11:50.520Z,0.50
2019-04-28T05:14:20.102Z,0.60
2019-04-28T05:16:49.837Z,0.50
2019-04-28T05:19:19.925Z,0.60
2019-04-28T05:21:49.930Z,0.75
2019-04-28T05:24:27.122Z,0.50
2019-04-28T05:26:56.512Z,0.60
2019-04-28T05:29:26.683Z,0.60
2019-04-28T05:31:59.855Z,0.60
2019-04-28T05:34:29.528Z,0.67
2019-04-28T05:37:00.545Z,0.60
2019-04-28T05:39:29.895Z,0.70
2019-04-28T05:42:00.830Z,0.53
2019-04-28T05:44:32.059Z,0.70
2019-04-28T05:47:02.569Z,0.60
2019-04-28T05:49:39.572Z,0.65
2019-04-28T05:52:11.945Z,0.70
2019-04-28T05:54:45.621Z,0.77
2019-04-28T05:57:16.645Z,0.65
2019-04-28T05:59:47.664Z,0.50
2019-04-28T06:02:27.215Z,0.70
2019-04-28T06:04:56.577Z,0.60
2019-04-28T06:07:36.096Z,0.72
2019-04-28T06:10:07.171Z,0.47
2019-04-28T06:12:36.576Z,0.62
2019-04-28T06:15:11.692Z,0.30
2019-04-28T06:17:40.250Z,0.50
2019-04-28T06:20:11.856Z,0.45
2019-04-28T06:22:40.937Z,0.60
2019-04-28T06:25:11.297Z,0.45
2019-04-28T06:27:40.692Z,0.65
2019-04-28T06:30:10.883Z,0.70
2019-04-28T06:32:40.281Z,0.60
2019-04-28T06:35:09.801Z,0.50
2019-04-28T06:37:39.264Z,0.60
2019-04-28T06:40:08.895Z,0.62
2019-04-28T06:42:38.352Z,0.60
2019-04-28T06:45:08.281Z,0.70
2019-04-28T06:47:37.656Z,0.60
2019-04-28T06:50:07.179Z,0.60
2019-04-28T06:52:36.568Z,0.70
2019-04-28T06:55:07.560Z,0.65
2019-04-28T06:57:36.950Z,1.00
2019-04-28T07:00:07.131Z,0.63
2019-04-28T07:02:36.586Z,0.55
2019-04-28T07:05:07.377Z,0.40
2019-04-28T07:07:36.766Z,0.40
2019-04-28T07:10:07.587Z,0.60
2019-04-28T07:12:36.963Z,0.42
2019-04-28T07:15:06.695Z,0.60
2019-04-28T07:17:36.136Z,0.70
2019-04-28T07:20:08.501Z,0.50
2019-04-28T07:22:37.887Z,0.40
2019-04-28T07:25:08.378Z,0.70
2019-04-28T07:27:37.768Z,0.60
2019-04-28T07:30:08.467Z,0.68
2019-04-28T07:32:37.855Z,0.50
2019-04-28T07:35:07.239Z,0.70
2019-04-28T07:37:37.082Z,0.53
2019-04-28T07:40:07.601Z,0.73
2019-04-28T07:42:36.992Z,0.50
2019-04-28T07:45:09.380Z,0.57
2019-04-28T07:47:38.765Z,0.60
2019-04-28T07:50:08.594Z,0.78
2019-04-28T07:52:45.288Z,0.47
2019-04-28T07:55:14.683Z,0.50
2019-04-28T07:57:44.065Z,0.50
2019-04-28T08:00:15.629Z,0.50
2019-04-28T08:02:45.072Z,0.40
2019-04-28T08:05:14.523Z,0.60
2019-04-28T08:07:43.991Z,0.60
2019-04-28T08:10:13.711Z,0.60
2019-04-28T08:12:43.130Z,0.65
2019-04-28T08:15:12.540Z,0.60
2019-04-28T08:17:42.003Z,0.60
2019-04-28T08:20:11.515Z,0.60
2019-04-28T08:22:40.891Z,0.85
2019-04-28T08:25:11.520Z,0.68
2019-04-28T08:27:40.907Z,0.68
2019-04-28T08:30:10.638Z,0.57
2019-04-28T08:32:44.442Z,0.78
2019-04-28T08:35:13.971Z,0.60
2019-04-28T08:37:43.426Z,0.80
2019-04-28T08:40:12.801Z,0.50
2019-04-28T08:42:42.177Z,0.88
2019-04-28T08:45:11.907Z,0.60
2019-04-28T08:47:41.294Z,0.50
2019-04-28T08:50:11.034Z,0.55
2019-04-28T08:52:40.416Z,0.70
2019-04-28T08:55:09.943Z,0.50
2019-04-28T08:57:39.327Z,0.50
2019-04-28T09:00:10.320Z,0.60
2019-04-28T09:02:40.493Z,0.75
2019-04-28T09:05:10.309Z,0.55
2019-04-28T09:07:39.964Z,0.57
2019-04-28T09:10:10.714Z,0.50
2019-04-28T09:12:40.463Z,0.55
2019-04-28T09:15:10.086Z,0.80
2019-04-28T09:17:39.575Z,0.40
2019-04-28T09:20:09.611Z,0.80
2019-04-28T09:22:39.329Z,0.60
2019-04-28T09:25:09.620Z,0.53
2019-04-28T09:27:39.707Z,0.60
2019-04-28T09:30:10.146Z,0.40
2019-04-28T09:32:40.270Z,0.70
2019-04-28T09:35:10.852Z,0.47
2019-04-28T09:37:40.610Z,0.50
2019-04-28T09:40:14.931Z,0.40
2019-04-28T09:42:46.042Z,0.42
2019-04-28T09:45:19.877Z,0.23
2019-04-28T09:47:49.350Z,0.60
2019-04-28T09:50:18.739Z,0.70
2019-04-28T09:52:48.831Z,0.40
2019-04-28T09:55:19.260Z,0.43
2019-04-28T09:57:48.651Z,0.37
2019-04-28T10:00:18.216Z,0.60
2019-04-28T10:02:47.745Z,0.53
2019-04-28T10:05:17.835Z,0.53
2019-04-28T10:07:47.243Z,0.50
2019-04-28T10:10:17.831Z,0.40
2019-04-28T10:12:47.221Z,0.60
2019-04-28T10:15:17.042Z,0.47
2019-04-28T10:17:46.437Z,0.33
2019-04-28T10:20:16.255Z,0.40
2019-04-28T10:22:45.631Z,0.40
2019-04-28T10:25:15.158Z,0.53
2019-04-28T10:27:45.250Z,0.43
2019-04-28T10:30:16.185Z,0.40
2019-04-28T10:32:45.580Z,0.40
2019-04-28T10:35:15.888Z,0.55
2019-04-28T10:37:46.319Z,0.47
2019-04-28T10:40:35.537Z,0.50
2019-04-28T10:43:05.164Z,0.60
2019-04-28T10:45:36.259Z,0.53
2019-04-28T10:48:05.672Z,0.40
2019-04-28T10:50:35.058Z,0.53
2019-04-28T10:53:04.447Z,0.77
2019-04-28T10:55:33.905Z,0.47
2019-04-28T10:58:03.755Z,0.33
2019-04-28T11:00:35.371Z,0.40
2019-04-28T11:03:04.954Z,0.50
2019-04-28T11:05:36.242Z,0.50
2019-04-28T11:08:07.339Z,0.40
2019-04-28T11:10:36.871Z,0.68
2019-04-28T11:13:06.458Z,0.53
2019-04-28T11:15:37.292Z,0.47
2019-04-28T11:18:09.349Z,0.33
2019-04-28T11:20:38.743Z,0.40
2019-04-28T11:23:08.205Z,0.40
2019-04-28T11:25:37.814Z,0.40
2019-04-28T11:28:07.879Z,0.40
2019-04-28T11:30:37.336Z,0.60
2019-04-28T11:33:08.777Z,0.40
2019-04-28T11:35:39.935Z,0.40
2019-04-28T11:38:09.323Z,0.40
2019-04-28T11:40:38.690Z,0.47
2019-04-28T11:43:08.080Z,0.40
2019-04-28T11:45:37.545Z,0.40
2019-04-28T11:48:07.093Z,0.50
2019-04-28T11:50:36.474Z,0.40
2019-04-28T11:53:05.957Z,0.40
2019-04-28T11:55:35.345Z,0.40
2019-04-28T11:58:05.221Z,0.50
2019-04-28T12:00:36.044Z,0.57
2019-04-28T12:03:05.653Z,0.80
2019-04-28T12:05:46.002Z,0.50
2019-04-28T12:08:15.727Z,0.40
2019-04-28T12:10:46.749Z,0.50
2019-04-28T12:13:20.743Z,0.50
2019-04-28T12:15:51.827Z,0.42
2019-04-28T12:18:38.779Z,0.40
2019-04-28T12:21:08.429Z,0.50
2019-04-28T12:23:37.884Z,0.30
2019-04-28T12:26:07.268Z,0.37
2019-04-28T12:28:36.655Z,0.33
2019-04-28T12:31:06.034Z,0.50
2019-04-28T12:33:35.493Z,0.40
2019-04-28T12:36:07.291Z,0.50
2019-04-28T12:38:36.753Z,0.50
2019-04-28T12:41:06.120Z,0.47
2019-04-28T12:43:35.503Z,0.43
2019-04-28T12:46:05.423Z,0.43
2019-04-28T12:48:35.315Z,0.50
2019-04-28T12:51:05.339Z,0.70
2019-04-28T12:53:37.400Z,0.47
2019-04-28T12:56:06.875Z,0.30
2019-04-28T12:58:36.258Z,0.50
2019-04-28T13:01:07.739Z,0.40
2019-04-28T13:03:38.849Z,0.30
2019-04-28T13:06:15.623Z,0.40
2019-04-28T13:08:45.046Z,0.50
2019-04-28T13:11:14.495Z,0.53
2019-04-28T13:13:46.752Z,0.53
2019-04-28T13:16:15.028Z,0.30
2019-04-28T13:18:45.372Z,0.60
2019-04-28T13:21:14.762Z,0.50
2019-04-28T13:23:44.162Z,0.60
2019-04-28T13:26:13.576Z,0.55
2019-04-28T13:28:42.934Z,0.60
2019-04-28T13:31:12.330Z,2.77
2019-04-28T13:33:55.403Z,7.28
2019-04-28T13:36:14.844Z,1.10
2019-04-28T13:38:43.911Z,0.50
2019-04-28T13:41:13.299Z,0.50
2019-04-28T13:43:42.694Z,0.30
2019-04-28T13:46:12.149Z,0.40
2019-04-28T13:48:41.614Z,0.40
2019-04-28T13:51:10.999Z,0.33
2019-04-28T13:53:40.407Z,0.55
2019-04-28T13:56:09.769Z,0.50
2019-04-28T13:58:39.440Z,0.50
2019-04-28T14:01:19.276Z,0.70
2019-04-28T14:04:01.942Z,0.33
2019-04-28T14:06:32.979Z,0.37
2019-04-28T14:09:02.415Z,0.40
2019-04-28T14:11:33.380Z,0.40
2019-04-28T14:14:02.764Z,0.50
2019-04-28T14:16:32.146Z,0.53
2019-04-28T14:19:01.523Z,0.70
2019-04-28T14:21:30.921Z,0.70
2019-04-28T14:24:00.371Z,0.40
2019-04-28T14:26:29.774Z,0.57
2019-04-28T14:28:59.183Z,0.70
2019-04-28T14:31:28.560Z,0.53
2019-04-28T14:33:57.940Z,0.50
2019-04-28T14:36:27.389Z,0.40
2019-04-28T14:38:56.727Z,0.70
2019-04-28T14:41:26.108Z,0.57
2019-04-28T14:43:55.502Z,0.50
2019-04-28T14:46:25.871Z,0.50
2019-04-28T14:48:55.618Z,0.37
2019-04-28T14:51:25.003Z,0.67
2019-04-28T14:53:55.353Z,0.65
2019-04-28T14:56:24.743Z,0.50
2019-04-28T14:58:54.125Z,0.43
2019-04-28T15:01:41.117Z,0.57
2019-04-28T15:04:20.760Z,0.53
2019-04-28T15:06:55.811Z,0.75
2019-04-28T15:09:32.924Z,0.70
2019-04-28T15:12:04.079Z,0.80
2019-04-28T15:14:33.456Z,0.70
2019-04-28T15:17:02.845Z,0.70
2019-04-28T15:19:32.225Z,1.00
2019-04-28T15:22:01.619Z,0.98
2019-04-28T15:24:31.990Z,0.78
2019-04-28T15:27:01.355Z,0.60
2019-04-28T15:29:30.751Z,0.70
2019-04-28T15:32:00.129Z,1.00
2019-04-28T15:34:29.523Z,0.80
2019-04-28T15:37:09.223Z,1.10
2019-04-28T15:39:30.000Z,0.80
2019-04-28T15:41:59.387Z,0.82
2019-04-28T15:44:28.767Z,0.77
2019-04-28T15:46:58.159Z,0.70
2019-04-28T15:49:27.549Z,1.00
2019-04-28T15:51:56.935Z,0.70
2019-04-28T15:54:26.324Z,0.50
2019-04-28T15:56:55.806Z,0.90
2019-04-28T15:59:25.186Z,0.72
2019-04-28T16:01:54.649Z,0.78
2019-04-28T16:04:24.039Z,0.72
2019-04-28T16:06:53.438Z,0.62
2019-04-28T16:09:22.811Z,0.75
2019-04-28T16:11:52.204Z,0.80
2019-04-28T16:14:21.594Z,0.90
2019-04-28T16:16:50.985Z,0.98
2019-04-28T16:19:20.384Z,0.90
2019-04-28T16:21:49.771Z,0.80
2019-04-28T16:24:19.228Z,0.70
2019-04-28T16:26:48.614Z,0.95
2019-04-28T16:29:17.986Z,0.90
2019-04-28T16:31:48.006Z,0.57
2019-04-28T16:34:18.140Z,1.00
2019-04-28T16:36:48.480Z,0.90
2019-04-28T16:39:18.620Z,0.90
2019-04-28T16:41:49.422Z,0.90
2019-04-28T16:44:19.697Z,0.97
2019-04-28T16:46:49.387Z,1.10
2019-04-28T16:49:19.534Z,1.10
2019-04-28T16:51:49.855Z,0.80
2019-04-28T16:54:19.998Z,0.90
2019-04-28T16:57:01.231Z,1.00
2019-04-28T16:59:35.347Z,0.78
2019-04-28T17:02:06.523Z,1.00
2019-04-28T17:04:35.999Z,0.73
2019-04-28T17:07:05.449Z,1.80
2019-04-28T17:12:05.168Z,1.20
2019-04-28T17:14:34.699Z,0.80
2019-04-28T17:17:04.090Z,1.13
2019-04-28T17:19:33.463Z,1.07
2019-04-28T17:22:02.940Z,1.00
2019-04-28T17:24:32.442Z,1.05
2019-04-28T17:27:01.903Z,1.07
2019-04-28T17:29:31.458Z,0.88
2019-04-28T17:32:00.917Z,1.00
2019-04-28T17:34:30.365Z,0.72
2019-04-28T17:36:59.746Z,0.90
2019-04-28T17:39:29.780Z,0.83
2019-04-28T17:41:59.304Z,0.80
2019-04-28T17:44:28.769Z,0.98
2019-04-28T17:46:58.306Z,0.82
2019-04-28T17:49:31.982Z,1.10
2019-04-28T17:52:01.439Z,0.80
2019-04-28T17:54:30.933Z,1.00
2019-04-28T17:57:00.324Z,1.10
2019-04-28T17:59:29.717Z,1.00
2019-04-28T18:02:06.486Z,1.00
2019-04-28T18:04:40.094Z,1.12
2019-04-28T18:07:11.644Z,0.90
2019-04-28T18:09:41.097Z,0.90
2019-04-28T18:12:10.829Z,0.90
2019-04-28T18:14:41.655Z,1.23
2019-04-28T18:17:12.845Z,1.20
2019-04-28T18:19:42.235Z,1.05
2019-04-28T18:22:11.715Z,1.30
2019-04-28T18:24:41.100Z,1.15
2019-04-28T18:27:10.556Z,0.90
2019-04-28T18:29:40.033Z,1.10
2019-04-28T18:32:11.677Z,1.15
2019-04-28T18:34:45.803Z,1.50
2019-04-28T18:37:19.745Z,1.10
2019-04-28T18:40:07.019Z,1.10
2019-04-28T18:42:44.796Z,0.80
2019-04-28T18:45:14.703Z,0.90
2019-04-28T18:47:44.145Z,0.80
2019-04-28T18:50:13.605Z,1.00
2019-04-28T18:52:42.983Z,1.22
2019-04-28T18:55:13.422Z,0.97
2019-04-28T18:57:42.794Z,1.05
2019-04-28T19:00:13.928Z,1.10
2019-04-28T19:02:45.248Z,1.00
2019-04-28T19:05:14.853Z,1.07
2019-04-28T19:07:49.228Z,0.90
2019-04-28T19:10:23.021Z,1.10
2019-04-28T19:12:56.898Z,1.10
2019-04-28T19:15:47.077Z,1.10
2019-04-28T19:18:18.176Z,0.80
2019-04-28T19:20:47.560Z,1.00
2019-04-28T19:23:17.004Z,1.10
2019-04-28T19:25:46.400Z,1.12
2019-04-28T19:28:15.772Z,1.20
2019-04-28T19:30:45.670Z,0.80
2019-04-28T19:33:15.195Z,1.00
2019-04-28T19:35:44.587Z,1.23
2019-04-28T19:38:14.044Z,1.10
2019-04-28T19:40:43.439Z,1.00
2019-04-28T19:43:12.885Z,1.05
2019-04-28T19:45:43.847Z,1.20
2019-04-28T19:48:13.314Z,0.82
2019-04-28T19:50:42.836Z,1.10
2019-04-28T19:53:12.227Z,0.80
2019-04-28T19:55:43.266Z,1.07
2019-04-28T19:58:15.917Z,1.25
2019-04-28T20:00:49.883Z,1.37
2019-04-28T20:03:19.282Z,1.10
2019-04-28T20:05:48.674Z,1.27
2019-04-28T20:08:18.066Z,1.10
2019-04-28T20:10:47.459Z,0.80
2019-04-28T20:13:16.919Z,1.02
2019-04-28T20:15:46.390Z,1.32
2019-04-28T20:18:17.042Z,1.22
2019-04-28T20:20:46.597Z,1.00
2019-04-28T20:23:16.148Z,1.47
2019-04-28T20:25:45.665Z,1.10
2019-04-28T20:28:15.015Z,1.05
2019-04-28T20:30:44.407Z,1.27
2019-04-28T20:33:13.874Z,1.10
2019-04-28T20:35:44.953Z,0.80
2019-04-28T20:38:16.042Z,1.25
2019-04-28T20:40:49.774Z,1.00
2019-04-28T20:43:20.990Z,1.05
2019-04-28T20:45:50.516Z,1.00
2019-04-28T20:48:19.973Z,0.98
2019-04-28T20:50:49.365Z,1.10
2019-04-28T20:53:19.396Z,1.07
2019-04-28T20:55:50.100Z,1.05
2019-04-28T20:58:20.450Z,0.77
2019-04-28T21:00:49.839Z,1.00
2019-04-28T21:03:19.578Z,0.83
2019-04-28T21:05:48.969Z,1.25
2019-04-28T21:08:18.356Z,1.17
2019-04-28T21:10:47.754Z,1.00
2019-04-28T21:13:17.158Z,1.10
2019-04-28T21:15:46.526Z,1.10
2019-04-28T21:18:15.921Z,1.35
2019-04-28T21:20:45.319Z,0.98
2019-04-28T21:23:14.712Z,0.80
2019-04-28T21:25:44.347Z,1.05
2019-04-28T21:28:14.926Z,1.00
2019-04-28T21:30:45.068Z,1.10
2019-04-28T21:33:15.247Z,0.98
2019-04-28T21:35:45.557Z,1.15
2019-04-28T21:38:15.631Z,1.20
2019-04-28T21:40:45.740Z,1.12
2019-04-28T21:43:20.402Z,1.20
2019-04-28T21:48:52.607Z,0.90
2019-04-28T21:51:21.990Z,1.27
2019-04-28T21:53:51.362Z,0.93
2019-04-28T21:56:20.767Z,1.10
2019-04-28T21:58:50.147Z,1.40
2019-04-28T22:01:22.661Z,1.20
2019-04-28T22:03:52.108Z,1.10
2019-04-28T22:06:21.566Z,1.20
2019-04-28T22:08:51.273Z,1.20
2019-04-28T22:11:20.716Z,1.00
2019-04-28T22:13:50.103Z,1.15
2019-04-28T22:16:19.494Z,1.03
2019-04-28T22:18:49.285Z,0.90
2019-04-28T22:21:19.652Z,1.50
2019-04-28T22:23:51.371Z,0.90
2019-04-28T22:26:38.519Z,1.00
2019-04-28T22:29:07.971Z,1.20
2019-04-28T22:31:37.435Z,1.20
2019-04-28T22:34:06.974Z,1.37
2019-04-28T22:36:36.347Z,1.30
2019-04-28T22:39:07.303Z,1.40
2019-04-28T22:41:38.239Z,1.00
2019-04-28T22:44:07.869Z,1.00
2019-04-28T22:46:37.323Z,0.98
2019-04-28T22:49:06.876Z,1.07
2019-04-28T22:51:36.392Z,1.22
2019-04-28T22:54:10.274Z,1.00
2019-04-28T22:56:41.362Z,0.98
2019-04-28T22:59:12.522Z,1.17
2019-04-28T23:01:52.446Z,1.17
2019-04-28T23:04:23.487Z,1.10
2019-04-28T23:06:53.741Z,1.10
2019-04-28T23:09:24.043Z,0.90
2019-04-28T23:11:54.261Z,1.10
2019-04-28T23:14:24.404Z,1.20
2019-04-28T23:16:54.813Z,1.35
2019-04-28T23:19:26.490Z,1.10
2019-04-28T23:22:12.320Z,1.43
2019-04-28T23:24:41.774Z,1.12
2019-04-28T23:27:11.147Z,1.07
2019-04-28T23:29:40.595Z,1.30
2019-04-28T23:32:10.053Z,1.13
2019-04-28T23:34:39.492Z,1.03
2019-04-28T23:37:08.874Z,1.20
2019-04-28T23:39:38.262Z,1.12
2019-04-28T23:42:09.284Z,1.30
2019-04-28T23:44:38.732Z,1.30
2019-04-28T23:47:08.112Z,1.40
2019-04-28T23:49:37.562Z,1.30
2019-04-28T23:52:14.432Z,0.90
2019-04-28T23:54:48.347Z,1.30
2019-04-28T23:57:17.898Z,1.20
2019-04-28T23:59:48.360Z,1.52
